sensor_id;sensor_type;location;lat;lon;timestamp;P1;durP1;ratioP1;P2;durP2;ratioP2
3613;SDS011;1821;50.936;6.854;2023-02-24T00:00:33;62.55;;;41.08;;
3613;SDS011;1821;50.936;6.854;2023-02-24T00:01:18;60.45;;;39.20;;
3613;SDS011;1821;50.936;6.854;2023-02-24T00:02:06;60.58;;;38.60;;
3613;SDS011;1821;50.936;6.854;2023-02-24T00:02:48;65.18;;;39.33;;
3613;SDS011;1821;50.936;6.854;2023-02-24T00:03:30;57.60;;;38.20;;
3613;SDS011;1821;50.936;6.854;2023-02-24T00:04:12;61.72;;;38.42;;
3613;SDS011;1821;50.936;6.854;2023-02-24T00:04:54;64.63;;;38.50;;
3613;SDS011;1821;50.936;6.854;2023-02-24T00:05:38;68.63;;;41.30;;
3613;SDS011;1821;50.936;6.854;2023-02-24T00:06:23;67.35;;;41.15;;
3613;SDS011;1821;50.936;6.854;2023-02-24T00:07:07;60.47;;;36.55;;
3613;SDS011;1821;50.936;6.854;2023-02-24T00:07:51;63.17;;;38.45;;
3613;SDS011;1821;50.936;6.854;2023-02-24T00:08:33;61.53;;;38.60;;
3613;SDS011;1821;50.936;6.854;2023-02-24T00:10:00;62.28;;;38.17;;
3613;SDS011;1821;50.936;6.854;2023-02-24T00:10:42;58.72;;;36.97;;
3613;SDS011;1821;50.936;6.854;2023-02-24T00:11:25;58.33;;;37.08;;
3613;SDS011;1821;50.936;6.854;2023-02-24T00:12:11;52.38;;;36.22;;
3613;SDS011;1821;50.936;6.854;2023-02-24T00:12:55;58.40;;;37.00;;
3613;SDS011;1821;50.936;6.854;2023-02-24T00:13:37;54.85;;;36.85;;
3613;SDS011;1821;50.936;6.854;2023-02-24T00:14:21;55.35;;;35.00;;
3613;SDS011;1821;50.936;6.854;2023-02-24T00:15:05;47.95;;;29.02;;
3613;SDS011;1821;50.936;6.854;2023-02-24T00:15:57;43.93;;;27.80;;
3613;SDS011;1821;50.936;6.854;2023-02-24T00:16:43;42.10;;;26.63;;
3613;SDS011;1821;50.936;6.854;2023-02-24T00:17:26;40.78;;;26.77;;
3613;SDS011;1821;50.936;6.854;2023-02-24T00:18:10;38.60;;;25.52;;
3613;SDS011;1821;50.936;6.854;2023-02-24T00:18:52;37.33;;;24.17;;
3613;SDS011;1821;50.936;6.854;2023-02-24T00:19:34;40.80;;;23.80;;
3613;SDS011;1821;50.936;6.854;2023-02-24T00:20:17;41.05;;;23.15;;
3613;SDS011;1821;50.936;6.854;2023-02-24T00:21:03;37.28;;;22.85;;
3613;SDS011;1821;50.936;6.854;2023-02-24T00:21:50;37.40;;;22.50;;
3613;SDS011;1821;50.936;6.854;2023-02-24T00:22:34;33.83;;;21.05;;
3613;SDS011;1821;50.936;6.854;2023-02-24T00:23:18;32.80;;;20.88;;
3613;SDS011;1821;50.936;6.854;2023-02-24T00:24:03;33.60;;;21.20;;
3613;SDS011;1821;50.936;6.854;2023-02-24T00:24:46;30.83;;;20.77;;
3613;SDS011;1821;50.936;6.854;2023-02-24T00:25:28;29.17;;;19.95;;
3613;SDS011;1821;50.936;6.854;2023-02-24T00:26:11;30.23;;;20.38;;
3613;SDS011;1821;50.936;6.854;2023-02-24T00:26:57;33.83;;;21.52;;
3613;SDS011;1821;50.936;6.854;2023-02-24T00:27:41;33.53;;;21.90;;
3613;SDS011;1821;50.936;6.854;2023-02-24T00:28:27;33.72;;;21.33;;
3613;SDS011;1821;50.936;6.854;2023-02-24T00:29:10;32.38;;;20.35;;
3613;SDS011;1821;50.936;6.854;2023-02-24T00:29:53;32.10;;;20.73;;
3613;SDS011;1821;50.936;6.854;2023-02-24T00:30:35;33.17;;;21.23;;
3613;SDS011;1821;50.936;6.854;2023-02-24T00:31:18;29.65;;;18.92;;
3613;SDS011;1821;50.936;6.854;2023-02-24T00:32:04;28.73;;;18.60;;
3613;SDS011;1821;50.936;6.854;2023-02-24T00:32:53;27.83;;;17.67;;
3613;SDS011;1821;50.936;6.854;2023-02-24T00:33:42;26.40;;;17.88;;
3613;SDS011;1821;50.936;6.854;2023-02-24T00:34:28;25.65;;;16.55;;
3613;SDS011;1821;50.936;6.854;2023-02-24T00:35:11;25.00;;;16.25;;
3613;SDS011;1821;50.936;6.854;2023-02-24T00:35:54;26.13;;;16.27;;
3613;SDS011;1821;50.936;6.854;2023-02-24T00:36:44;24.55;;;16.02;;
3613;SDS011;1821;50.936;6.854;2023-02-24T00:37:27;26.85;;;16.20;;
3613;SDS011;1821;50.936;6.854;2023-02-24T00:38:09;27.50;;;15.93;;
3613;SDS011;1821;50.936;6.854;2023-02-24T00:38:57;27.17;;;16.13;;
3613;SDS011;1821;50.936;6.854;2023-02-24T00:39:40;24.33;;;15.48;;
3613;SDS011;1821;50.936;6.854;2023-02-24T00:40:26;26.13;;;16.23;;
3613;SDS011;1821;50.936;6.854;2023-02-24T00:41:13;28.17;;;16.30;;
3613;SDS011;1821;50.936;6.854;2023-02-24T00:41:56;26.05;;;16.75;;
3613;SDS011;1821;50.936;6.854;2023-02-24T00:42:44;25.15;;;15.60;;
3613;SDS011;1821;50.936;6.854;2023-02-24T00:43:26;25.55;;;16.23;;
3613;SDS011;1821;50.936;6.854;2023-02-24T00:44:09;25.45;;;17.23;;
3613;SDS011;1821;50.936;6.854;2023-02-24T00:44:53;29.58;;;16.48;;
3613;SDS011;1821;50.936;6.854;2023-02-24T00:45:35;26.23;;;15.40;;
3613;SDS011;1821;50.936;6.854;2023-02-24T00:46:19;26.23;;;16.05;;
3613;SDS011;1821;50.936;6.854;2023-02-24T00:47:03;25.40;;;14.88;;
3613;SDS011;1821;50.936;6.854;2023-02-24T00:47:47;25.00;;;15.20;;
3613;SDS011;1821;50.936;6.854;2023-02-24T00:48:31;26.05;;;14.70;;
3613;SDS011;1821;50.936;6.854;2023-02-24T00:49:14;25.85;;;14.32;;
3613;SDS011;1821;50.936;6.854;2023-02-24T00:49:59;25.02;;;13.90;;
3613;SDS011;1821;50.936;6.854;2023-02-24T00:50:41;26.35;;;14.93;;
3613;SDS011;1821;50.936;6.854;2023-02-24T00:51:25;24.67;;;13.98;;
3613;SDS011;1821;50.936;6.854;2023-02-24T00:52:14;24.05;;;13.60;;
3613;SDS011;1821;50.936;6.854;2023-02-24T00:53:00;20.10;;;13.23;;
3613;SDS011;1821;50.936;6.854;2023-02-24T00:53:43;21.98;;;12.60;;
3613;SDS011;1821;50.936;6.854;2023-02-24T00:54:25;19.85;;;12.98;;
3613;SDS011;1821;50.936;6.854;2023-02-24T00:55:08;19.00;;;12.85;;
3613;SDS011;1821;50.936;6.854;2023-02-24T00:55:58;17.70;;;11.45;;
3613;SDS011;1821;50.936;6.854;2023-02-24T00:56:41;22.90;;;11.93;;
3613;SDS011;1821;50.936;6.854;2023-02-24T00:57:23;21.38;;;11.57;;
3613;SDS011;1821;50.936;6.854;2023-02-24T00:58:05;19.30;;;10.90;;
3613;SDS011;1821;50.936;6.854;2023-02-24T00:58:47;20.58;;;11.10;;
3613;SDS011;1821;50.936;6.854;2023-02-24T00:59:29;19.60;;;11.45;;
3613;SDS011;1821;50.936;6.854;2023-02-24T01:00:12;22.20;;;11.48;;
3613;SDS011;1821;50.936;6.854;2023-02-24T01:00:55;20.80;;;11.40;;
3613;SDS011;1821;50.936;6.854;2023-02-24T01:01:38;21.13;;;11.77;;
3613;SDS011;1821;50.936;6.854;2023-02-24T01:02:20;20.50;;;10.30;;
3613;SDS011;1821;50.936;6.854;2023-02-24T01:03:02;20.20;;;9.93;;
3613;SDS011;1821;50.936;6.854;2023-02-24T01:03:45;19.75;;;11.10;;
3613;SDS011;1821;50.936;6.854;2023-02-24T01:04:31;17.98;;;10.95;;
3613;SDS011;1821;50.936;6.854;2023-02-24T01:05:13;21.20;;;11.23;;
3613;SDS011;1821;50.936;6.854;2023-02-24T01:05:55;18.77;;;11.43;;
3613;SDS011;1821;50.936;6.854;2023-02-24T01:06:43;19.77;;;10.80;;
3613;SDS011;1821;50.936;6.854;2023-02-24T01:07:25;19.25;;;11.35;;
3613;SDS011;1821;50.936;6.854;2023-02-24T01:08:11;19.02;;;11.40;;
3613;SDS011;1821;50.936;6.854;2023-02-24T01:08:56;21.70;;;11.73;;
3613;SDS011;1821;50.936;6.854;2023-02-24T01:09:40;21.95;;;11.73;;
3613;SDS011;1821;50.936;6.854;2023-02-24T01:10:22;26.00;;;11.32;;
3613;SDS011;1821;50.936;6.854;2023-02-24T01:11:07;21.83;;;10.30;;
3613;SDS011;1821;50.936;6.854;2023-02-24T01:12:10;18.60;;;11.00;;
3613;SDS011;1821;50.936;6.854;2023-02-24T01:13:02;20.42;;;11.90;;
3613;SDS011;1821;50.936;6.854;2023-02-24T01:13:44;24.90;;;11.65;;
3613;SDS011;1821;50.936;6.854;2023-02-24T01:14:27;24.33;;;11.38;;
3613;SDS011;1821;50.936;6.854;2023-02-24T01:15:11;24.52;;;12.75;;
3613;SDS011;1821;50.936;6.854;2023-02-24T01:15:58;22.63;;;11.60;;
3613;SDS011;1821;50.936;6.854;2023-02-24T01:16:43;25.50;;;13.23;;
3613;SDS011;1821;50.936;6.854;2023-02-24T01:17:30;24.55;;;12.75;;
3613;SDS011;1821;50.936;6.854;2023-02-24T01:18:15;24.70;;;14.10;;
3613;SDS011;1821;50.936;6.854;2023-02-24T01:18:57;21.23;;;13.57;;
3613;SDS011;1821;50.936;6.854;2023-02-24T01:19:39;21.60;;;12.52;;
3613;SDS011;1821;50.936;6.854;2023-02-24T01:20:20;25.45;;;13.10;;
3613;SDS011;1821;50.936;6.854;2023-02-24T01:21:05;26.52;;;14.40;;
3613;SDS011;1821;50.936;6.854;2023-02-24T01:21:46;28.25;;;15.80;;
3613;SDS011;1821;50.936;6.854;2023-02-24T01:22:35;31.15;;;16.73;;
3613;SDS011;1821;50.936;6.854;2023-02-24T01:23:19;32.95;;;18.20;;
3613;SDS011;1821;50.936;6.854;2023-02-24T01:24:01;32.08;;;17.83;;
3613;SDS011;1821;50.936;6.854;2023-02-24T01:24:44;34.33;;;17.27;;
3613;SDS011;1821;50.936;6.854;2023-02-24T01:25:27;31.90;;;17.80;;
3613;SDS011;1821;50.936;6.854;2023-02-24T01:26:11;31.42;;;18.58;;
3613;SDS011;1821;50.936;6.854;2023-02-24T01:26:53;30.55;;;18.65;;
3613;SDS011;1821;50.936;6.854;2023-02-24T01:27:35;33.88;;;19.23;;
3613;SDS011;1821;50.936;6.854;2023-02-24T01:28:17;36.17;;;20.37;;
3613;SDS011;1821;50.936;6.854;2023-02-24T01:28:59;37.50;;;21.20;;
3613;SDS011;1821;50.936;6.854;2023-02-24T01:29:41;36.65;;;22.50;;
3613;SDS011;1821;50.936;6.854;2023-02-24T01:30:26;38.63;;;23.25;;
3613;SDS011;1821;50.936;6.854;2023-02-24T01:31:08;38.80;;;23.73;;
3613;SDS011;1821;50.936;6.854;2023-02-24T01:31:50;45.35;;;24.00;;
3613;SDS011;1821;50.936;6.854;2023-02-24T01:32:35;37.13;;;23.15;;
3613;SDS011;1821;50.936;6.854;2023-02-24T01:33:17;39.65;;;23.70;;
3613;SDS011;1821;50.936;6.854;2023-02-24T01:34:00;38.85;;;25.08;;
3613;SDS011;1821;50.936;6.854;2023-02-24T01:34:46;36.60;;;24.70;;
3613;SDS011;1821;50.936;6.854;2023-02-24T01:35:31;43.50;;;25.48;;
3613;SDS011;1821;50.936;6.854;2023-02-24T01:36:16;46.90;;;25.15;;
3613;SDS011;1821;50.936;6.854;2023-02-24T01:36:59;38.83;;;23.50;;
3613;SDS011;1821;50.936;6.854;2023-02-24T01:37:41;43.42;;;24.30;;
3613;SDS011;1821;50.936;6.854;2023-02-24T01:38:23;45.67;;;25.02;;
3613;SDS011;1821;50.936;6.854;2023-02-24T01:39:05;40.97;;;24.70;;
3613;SDS011;1821;50.936;6.854;2023-02-24T01:39:51;44.05;;;25.05;;
3613;SDS011;1821;50.936;6.854;2023-02-24T01:40:33;43.97;;;25.02;;
3613;SDS011;1821;50.936;6.854;2023-02-24T01:41:16;47.47;;;24.95;;
3613;SDS011;1821;50.936;6.854;2023-02-24T01:42:02;38.25;;;23.70;;
3613;SDS011;1821;50.936;6.854;2023-02-24T01:42:46;38.88;;;22.30;;
3613;SDS011;1821;50.936;6.854;2023-02-24T01:43:32;39.53;;;23.55;;
3613;SDS011;1821;50.936;6.854;2023-02-24T01:45:04;42.05;;;23.98;;
3613;SDS011;1821;50.936;6.854;2023-02-24T01:45:55;45.25;;;24.55;;
3613;SDS011;1821;50.936;6.854;2023-02-24T01:46:37;41.88;;;22.13;;
3613;SDS011;1821;50.936;6.854;2023-02-24T01:47:33;36.63;;;22.80;;
3613;SDS011;1821;50.936;6.854;2023-02-24T01:48:15;40.08;;;22.85;;
3613;SDS011;1821;50.936;6.854;2023-02-24T01:49:06;44.42;;;23.23;;
3613;SDS011;1821;50.936;6.854;2023-02-24T01:49:51;42.05;;;22.45;;
3613;SDS011;1821;50.936;6.854;2023-02-24T01:50:35;37.05;;;21.25;;
3613;SDS011;1821;50.936;6.854;2023-02-24T01:51:18;34.42;;;21.20;;
3613;SDS011;1821;50.936;6.854;2023-02-24T01:52:06;35.28;;;20.92;;
3613;SDS011;1821;50.936;6.854;2023-02-24T01:53:10;45.20;;;22.30;;
3613;SDS011;1821;50.936;6.854;2023-02-24T01:53:53;43.65;;;22.50;;
3613;SDS011;1821;50.936;6.854;2023-02-24T01:54:36;35.65;;;20.20;;
3613;SDS011;1821;50.936;6.854;2023-02-24T01:55:24;46.35;;;21.45;;
3613;SDS011;1821;50.936;6.854;2023-02-24T01:56:17;42.45;;;22.42;;
3613;SDS011;1821;50.936;6.854;2023-02-24T01:57:01;35.85;;;22.08;;
3613;SDS011;1821;50.936;6.854;2023-02-24T01:57:49;41.45;;;21.55;;
3613;SDS011;1821;50.936;6.854;2023-02-24T01:58:32;36.03;;;20.45;;
3613;SDS011;1821;50.936;6.854;2023-02-24T01:59:14;37.28;;;20.17;;
3613;SDS011;1821;50.936;6.854;2023-02-24T01:59:56;39.70;;;21.20;;
3613;SDS011;1821;50.936;6.854;2023-02-24T02:00:51;36.80;;;22.42;;
3613;SDS011;1821;50.936;6.854;2023-02-24T02:01:35;39.75;;;22.25;;
3613;SDS011;1821;50.936;6.854;2023-02-24T02:02:23;38.47;;;22.05;;
3613;SDS011;1821;50.936;6.854;2023-02-24T02:03:10;40.15;;;21.20;;
3613;SDS011;1821;50.936;6.854;2023-02-24T02:03:59;43.78;;;23.13;;
3613;SDS011;1821;50.936;6.854;2023-02-24T02:04:49;41.13;;;22.45;;
3613;SDS011;1821;50.936;6.854;2023-02-24T02:05:36;44.13;;;21.65;;
3613;SDS011;1821;50.936;6.854;2023-02-24T02:06:19;46.50;;;22.63;;
3613;SDS011;1821;50.936;6.854;2023-02-24T02:07:01;46.15;;;24.65;;
3613;SDS011;1821;50.936;6.854;2023-02-24T02:07:44;47.55;;;23.80;;
3613;SDS011;1821;50.936;6.854;2023-02-24T02:08:27;45.35;;;22.65;;
3613;SDS011;1821;50.936;6.854;2023-02-24T02:09:09;48.40;;;24.10;;
3613;SDS011;1821;50.936;6.854;2023-02-24T02:09:54;46.13;;;23.17;;
3613;SDS011;1821;50.936;6.854;2023-02-24T02:10:44;39.80;;;21.55;;
3613;SDS011;1821;50.936;6.854;2023-02-24T02:11:27;44.95;;;22.30;;
3613;SDS011;1821;50.936;6.854;2023-02-24T02:12:09;41.58;;;22.42;;
3613;SDS011;1821;50.936;6.854;2023-02-24T02:12:51;40.33;;;22.63;;
3613;SDS011;1821;50.936;6.854;2023-02-24T02:13:33;42.70;;;22.65;;
3613;SDS011;1821;50.936;6.854;2023-02-24T02:14:21;39.20;;;23.15;;
3613;SDS011;1821;50.936;6.854;2023-02-24T02:15:05;43.20;;;23.48;;
3613;SDS011;1821;50.936;6.854;2023-02-24T02:16:13;43.17;;;23.30;;
3613;SDS011;1821;50.936;6.854;2023-02-24T02:25:07;44.35;;;21.75;;
3613;SDS011;1821;50.936;6.854;2023-02-24T02:27:05;43.47;;;21.55;;
3613;SDS011;1821;50.936;6.854;2023-02-24T02:29:34;40.67;;;20.73;;
3613;SDS011;1821;50.936;6.854;2023-02-24T02:34:53;41.17;;;21.33;;
3613;SDS011;1821;50.936;6.854;2023-02-24T02:39:01;45.08;;;23.63;;
3613;SDS011;1821;50.936;6.854;2023-02-24T02:40:38;44.90;;;22.33;;
3613;SDS011;1821;50.936;6.854;2023-02-24T02:42:00;42.88;;;21.85;;
3613;SDS011;1821;50.936;6.854;2023-02-24T02:43:22;50.78;;;24.45;;
3613;SDS011;1821;50.936;6.854;2023-02-24T02:44:26;44.22;;;22.85;;
3613;SDS011;1821;50.936;6.854;2023-02-24T02:45:23;47.25;;;24.05;;
3613;SDS011;1821;50.936;6.854;2023-02-24T02:49:47;38.53;;;21.42;;
3613;SDS011;1821;50.936;6.854;2023-02-24T02:50:34;36.58;;;20.65;;
3613;SDS011;1821;50.936;6.854;2023-02-24T02:51:27;37.92;;;20.17;;
3613;SDS011;1821;50.936;6.854;2023-02-24T02:52:16;41.45;;;20.45;;
3613;SDS011;1821;50.936;6.854;2023-02-24T02:53:08;39.83;;;18.80;;
3613;SDS011;1821;50.936;6.854;2023-02-24T02:54:48;39.67;;;17.23;;
3613;SDS011;1821;50.936;6.854;2023-02-24T02:55:52;38.42;;;18.10;;
3613;SDS011;1821;50.936;6.854;2023-02-24T02:56:41;40.08;;;17.77;;
3613;SDS011;1821;50.936;6.854;2023-02-24T02:57:28;35.58;;;16.38;;
3613;SDS011;1821;50.936;6.854;2023-02-24T02:58:16;31.75;;;15.63;;
3613;SDS011;1821;50.936;6.854;2023-02-24T02:59:03;32.88;;;15.45;;
3613;SDS011;1821;50.936;6.854;2023-02-24T02:59:54;33.05;;;15.05;;
3613;SDS011;1821;50.936;6.854;2023-02-24T03:00:56;34.75;;;15.77;;
3613;SDS011;1821;50.936;6.854;2023-02-24T03:01:43;27.63;;;14.32;;
3613;SDS011;1821;50.936;6.854;2023-02-24T03:02:28;32.53;;;15.23;;
3613;SDS011;1821;50.936;6.854;2023-02-24T03:03:20;31.73;;;14.80;;
3613;SDS011;1821;50.936;6.854;2023-02-24T03:04:03;36.97;;;15.35;;
3613;SDS011;1821;50.936;6.854;2023-02-24T03:04:51;41.58;;;16.33;;
3613;SDS011;1821;50.936;6.854;2023-02-24T03:05:37;34.15;;;15.35;;
3613;SDS011;1821;50.936;6.854;2023-02-24T03:06:42;35.78;;;15.20;;
3613;SDS011;1821;50.936;6.854;2023-02-24T03:07:32;30.95;;;14.35;;
3613;SDS011;1821;50.936;6.854;2023-02-24T03:08:24;29.63;;;13.85;;
3613;SDS011;1821;50.936;6.854;2023-02-24T03:09:13;33.17;;;15.15;;
3613;SDS011;1821;50.936;6.854;2023-02-24T03:10:00;37.45;;;15.85;;
3613;SDS011;1821;50.936;6.854;2023-02-24T03:10:51;32.75;;;14.45;;
3613;SDS011;1821;50.936;6.854;2023-02-24T03:11:34;35.78;;;15.50;;
3613;SDS011;1821;50.936;6.854;2023-02-24T03:12:16;34.17;;;14.82;;
3613;SDS011;1821;50.936;6.854;2023-02-24T03:13:02;37.80;;;15.30;;
3613;SDS011;1821;50.936;6.854;2023-02-24T03:13:49;37.85;;;14.10;;
3613;SDS011;1821;50.936;6.854;2023-02-24T03:14:36;28.38;;;12.73;;
3613;SDS011;1821;50.936;6.854;2023-02-24T03:15:21;36.35;;;12.00;;
3613;SDS011;1821;50.936;6.854;2023-02-24T03:16:06;33.40;;;13.23;;
3613;SDS011;1821;50.936;6.854;2023-02-24T03:16:50;29.13;;;11.98;;
3613;SDS011;1821;50.936;6.854;2023-02-24T03:17:36;28.02;;;12.75;;
3613;SDS011;1821;50.936;6.854;2023-02-24T03:18:24;30.08;;;12.48;;
3613;SDS011;1821;50.936;6.854;2023-02-24T03:19:14;27.27;;;12.82;;
3613;SDS011;1821;50.936;6.854;2023-02-24T03:20:05;24.05;;;11.63;;
3613;SDS011;1821;50.936;6.854;2023-02-24T03:21:07;27.48;;;11.45;;
3613;SDS011;1821;50.936;6.854;2023-02-24T03:21:57;30.60;;;12.90;;
3613;SDS011;1821;50.936;6.854;2023-02-24T03:23:03;26.48;;;11.82;;
3613;SDS011;1821;50.936;6.854;2023-02-24T03:23:51;26.90;;;11.70;;
3613;SDS011;1821;50.936;6.854;2023-02-24T03:24:37;27.90;;;11.70;;
3613;SDS011;1821;50.936;6.854;2023-02-24T03:25:25;25.98;;;13.50;;
3613;SDS011;1821;50.936;6.854;2023-02-24T03:26:15;30.30;;;12.63;;
3613;SDS011;1821;50.936;6.854;2023-02-24T03:27:12;27.75;;;12.95;;
3613;SDS011;1821;50.936;6.854;2023-02-24T03:28:47;30.38;;;12.50;;
3613;SDS011;1821;50.936;6.854;2023-02-24T03:29:22;28.13;;;12.10;;
3613;SDS011;1821;50.936;6.854;2023-02-24T03:30:19;26.20;;;12.57;;
3613;SDS011;1821;50.936;6.854;2023-02-24T03:32:11;25.20;;;11.82;;
3613;SDS011;1821;50.936;6.854;2023-02-24T03:33:00;30.30;;;12.57;;
3613;SDS011;1821;50.936;6.854;2023-02-24T03:34:23;26.30;;;11.77;;
3613;SDS011;1821;50.936;6.854;2023-02-24T03:35:16;26.30;;;11.45;;
3613;SDS011;1821;50.936;6.854;2023-02-24T03:36:02;28.45;;;11.75;;
3613;SDS011;1821;50.936;6.854;2023-02-24T03:36:46;28.50;;;10.98;;
3613;SDS011;1821;50.936;6.854;2023-02-24T03:37:30;28.15;;;10.43;;
3613;SDS011;1821;50.936;6.854;2023-02-24T03:38:16;26.27;;;10.85;;
3613;SDS011;1821;50.936;6.854;2023-02-24T03:39:00;28.52;;;9.88;;
3613;SDS011;1821;50.936;6.854;2023-02-24T03:39:42;23.63;;;9.45;;
3613;SDS011;1821;50.936;6.854;2023-02-24T03:40:27;24.25;;;10.10;;
3613;SDS011;1821;50.936;6.854;2023-02-24T03:41:14;25.27;;;10.13;;
3613;SDS011;1821;50.936;6.854;2023-02-24T03:41:58;26.67;;;9.57;;
3613;SDS011;1821;50.936;6.854;2023-02-24T03:42:55;22.17;;;9.10;;
3613;SDS011;1821;50.936;6.854;2023-02-24T03:43:45;28.85;;;11.32;;
3613;SDS011;1821;50.936;6.854;2023-02-24T03:44:30;26.55;;;10.35;;
3613;SDS011;1821;50.936;6.854;2023-02-24T03:45:12;25.65;;;9.82;;
3613;SDS011;1821;50.936;6.854;2023-02-24T03:45:56;21.75;;;9.95;;
3613;SDS011;1821;50.936;6.854;2023-02-24T03:46:39;22.50;;;10.23;;
3613;SDS011;1821;50.936;6.854;2023-02-24T03:47:22;25.83;;;10.18;;
3613;SDS011;1821;50.936;6.854;2023-02-24T03:48:07;27.00;;;10.90;;
3613;SDS011;1821;50.936;6.854;2023-02-24T03:48:55;26.55;;;10.90;;
3613;SDS011;1821;50.936;6.854;2023-02-24T03:49:43;23.33;;;10.98;;
3613;SDS011;1821;50.936;6.854;2023-02-24T03:50:26;24.52;;;9.90;;
3613;SDS011;1821;50.936;6.854;2023-02-24T03:51:13;29.02;;;11.15;;
3613;SDS011;1821;50.936;6.854;2023-02-24T03:52:08;27.38;;;10.45;;
3613;SDS011;1821;50.936;6.854;2023-02-24T03:59:13;26.70;;;10.27;;
3613;SDS011;1821;50.936;6.854;2023-02-24T04:00:13;27.75;;;10.23;;
3613;SDS011;1821;50.936;6.854;2023-02-24T04:01:27;22.65;;;9.10;;
3613;SDS011;1821;50.936;6.854;2023-02-24T04:02:17;27.50;;;9.23;;
3613;SDS011;1821;50.936;6.854;2023-02-24T04:04:24;26.88;;;10.18;;
3613;SDS011;1821;50.936;6.854;2023-02-24T04:05:11;25.58;;;9.50;;
3613;SDS011;1821;50.936;6.854;2023-02-24T04:06:59;25.02;;;9.40;;
3613;SDS011;1821;50.936;6.854;2023-02-24T04:07:58;20.95;;;8.85;;
3613;SDS011;1821;50.936;6.854;2023-02-24T04:09:41;26.90;;;8.73;;
3613;SDS011;1821;50.936;6.854;2023-02-24T04:10:43;26.67;;;9.02;;
3613;SDS011;1821;50.936;6.854;2023-02-24T04:11:40;20.25;;;7.97;;
3613;SDS011;1821;50.936;6.854;2023-02-24T04:12:28;20.42;;;7.60;;
3613;SDS011;1821;50.936;6.854;2023-02-24T04:14:04;23.65;;;8.55;;
3613;SDS011;1821;50.936;6.854;2023-02-24T04:14:57;20.05;;;8.18;;
3613;SDS011;1821;50.936;6.854;2023-02-24T04:15:58;20.20;;;6.93;;
3613;SDS011;1821;50.936;6.854;2023-02-24T04:17:44;26.35;;;6.95;;
3613;SDS011;1821;50.936;6.854;2023-02-24T04:18:31;20.65;;;6.30;;
3613;SDS011;1821;50.936;6.854;2023-02-24T04:19:14;17.75;;;5.85;;
3613;SDS011;1821;50.936;6.854;2023-02-24T04:19:59;15.18;;;5.50;;
3613;SDS011;1821;50.936;6.854;2023-02-24T04:20:58;17.20;;;6.00;;
3613;SDS011;1821;50.936;6.854;2023-02-24T04:21:43;16.30;;;6.40;;
3613;SDS011;1821;50.936;6.854;2023-02-24T04:22:30;16.95;;;5.97;;
3613;SDS011;1821;50.936;6.854;2023-02-24T04:23:14;17.75;;;5.75;;
3613;SDS011;1821;50.936;6.854;2023-02-24T04:23:58;17.35;;;5.78;;
3613;SDS011;1821;50.936;6.854;2023-02-24T04:24:49;21.45;;;5.80;;
3613;SDS011;1821;50.936;6.854;2023-02-24T04:25:37;17.38;;;6.32;;
3613;SDS011;1821;50.936;6.854;2023-02-24T04:26:20;17.15;;;6.30;;
3613;SDS011;1821;50.936;6.854;2023-02-24T04:27:05;16.50;;;5.72;;
3613;SDS011;1821;50.936;6.854;2023-02-24T04:27:52;16.85;;;5.18;;
3613;SDS011;1821;50.936;6.854;2023-02-24T04:28:36;14.30;;;5.72;;
3613;SDS011;1821;50.936;6.854;2023-02-24T04:29:19;18.27;;;6.28;;
3613;SDS011;1821;50.936;6.854;2023-02-24T04:30:06;17.23;;;5.85;;
3613;SDS011;1821;50.936;6.854;2023-02-24T04:30:53;22.42;;;6.68;;
3613;SDS011;1821;50.936;6.854;2023-02-24T04:31:39;18.30;;;6.07;;
3613;SDS011;1821;50.936;6.854;2023-02-24T04:32:22;15.50;;;4.97;;
3613;SDS011;1821;50.936;6.854;2023-02-24T04:33:07;16.27;;;4.88;;
3613;SDS011;1821;50.936;6.854;2023-02-24T04:33:50;16.10;;;5.15;;
3613;SDS011;1821;50.936;6.854;2023-02-24T04:34:33;16.50;;;6.00;;
3613;SDS011;1821;50.936;6.854;2023-02-24T04:35:18;17.55;;;5.22;;
3613;SDS011;1821;50.936;6.854;2023-02-24T04:36:02;22.10;;;6.30;;
3613;SDS011;1821;50.936;6.854;2023-02-24T04:36:46;25.83;;;6.30;;
3613;SDS011;1821;50.936;6.854;2023-02-24T04:37:29;26.10;;;5.90;;
3613;SDS011;1821;50.936;6.854;2023-02-24T04:38:16;18.27;;;5.57;;
3613;SDS011;1821;50.936;6.854;2023-02-24T04:38:59;16.08;;;6.30;;
3613;SDS011;1821;50.936;6.854;2023-02-24T04:39:40;17.23;;;5.45;;
3613;SDS011;1821;50.936;6.854;2023-02-24T04:40:22;22.60;;;5.50;;
3613;SDS011;1821;50.936;6.854;2023-02-24T04:41:04;20.27;;;4.93;;
3613;SDS011;1821;50.936;6.854;2023-02-24T04:41:47;23.80;;;4.93;;
3613;SDS011;1821;50.936;6.854;2023-02-24T04:42:31;24.33;;;5.38;;
3613;SDS011;1821;50.936;6.854;2023-02-24T04:43:13;26.00;;;5.47;;
3613;SDS011;1821;50.936;6.854;2023-02-24T04:43:55;18.63;;;5.32;;
3613;SDS011;1821;50.936;6.854;2023-02-24T04:44:37;17.48;;;5.55;;
3613;SDS011;1821;50.936;6.854;2023-02-24T04:45:26;18.38;;;4.45;;
3613;SDS011;1821;50.936;6.854;2023-02-24T04:46:10;23.00;;;5.50;;
3613;SDS011;1821;50.936;6.854;2023-02-24T04:46:53;20.33;;;5.80;;
3613;SDS011;1821;50.936;6.854;2023-02-24T04:47:36;17.65;;;4.93;;
3613;SDS011;1821;50.936;6.854;2023-02-24T04:48:18;19.08;;;5.45;;
3613;SDS011;1821;50.936;6.854;2023-02-24T04:49:00;22.65;;;5.43;;
3613;SDS011;1821;50.936;6.854;2023-02-24T04:49:42;16.77;;;5.50;;
3613;SDS011;1821;50.936;6.854;2023-02-24T04:50:25;12.23;;;4.20;;
3613;SDS011;1821;50.936;6.854;2023-02-24T04:51:12;19.77;;;5.35;;
3613;SDS011;1821;50.936;6.854;2023-02-24T04:51:56;20.33;;;5.28;;
3613;SDS011;1821;50.936;6.854;2023-02-24T04:52:38;19.55;;;4.95;;
3613;SDS011;1821;50.936;6.854;2023-02-24T04:53:20;22.33;;;5.82;;
3613;SDS011;1821;50.936;6.854;2023-02-24T04:54:08;19.77;;;5.68;;
3613;SDS011;1821;50.936;6.854;2023-02-24T04:54:50;17.63;;;5.95;;
3613;SDS011;1821;50.936;6.854;2023-02-24T04:55:34;23.58;;;4.95;;
3613;SDS011;1821;50.936;6.854;2023-02-24T04:56:21;18.13;;;5.13;;
3613;SDS011;1821;50.936;6.854;2023-02-24T04:57:03;22.40;;;6.20;;
3613;SDS011;1821;50.936;6.854;2023-02-24T04:57:48;19.98;;;5.43;;
3613;SDS011;1821;50.936;6.854;2023-02-24T04:58:33;15.80;;;4.80;;
3613;SDS011;1821;50.936;6.854;2023-02-24T04:59:18;17.17;;;4.80;;
3613;SDS011;1821;50.936;6.854;2023-02-24T05:00:03;15.35;;;5.85;;
3613;SDS011;1821;50.936;6.854;2023-02-24T05:01:04;18.10;;;5.00;;
3613;SDS011;1821;50.936;6.854;2023-02-24T05:01:52;13.35;;;4.97;;
3613;SDS011;1821;50.936;6.854;2023-02-24T05:02:34;12.38;;;4.72;;
3613;SDS011;1821;50.936;6.854;2023-02-24T05:03:16;21.80;;;5.22;;
3613;SDS011;1821;50.936;6.854;2023-02-24T05:03:59;17.33;;;4.50;;
3613;SDS011;1821;50.936;6.854;2023-02-24T05:04:41;21.95;;;5.00;;
3613;SDS011;1821;50.936;6.854;2023-02-24T05:05:23;16.52;;;5.38;;
3613;SDS011;1821;50.936;6.854;2023-02-24T05:06:06;19.15;;;5.50;;
3613;SDS011;1821;50.936;6.854;2023-02-24T05:06:56;28.95;;;5.88;;
3613;SDS011;1821;50.936;6.854;2023-02-24T05:07:38;18.80;;;5.03;;
3613;SDS011;1821;50.936;6.854;2023-02-24T05:08:21;19.75;;;5.45;;
3613;SDS011;1821;50.936;6.854;2023-02-24T05:09:03;17.23;;;5.70;;
3613;SDS011;1821;50.936;6.854;2023-02-24T05:09:56;17.13;;;5.45;;
3613;SDS011;1821;50.936;6.854;2023-02-24T05:10:41;20.95;;;5.80;;
3613;SDS011;1821;50.936;6.854;2023-02-24T05:11:24;13.50;;;5.00;;
3613;SDS011;1821;50.936;6.854;2023-02-24T05:12:07;16.85;;;4.90;;
3613;SDS011;1821;50.936;6.854;2023-02-24T05:12:49;17.88;;;4.90;;
3613;SDS011;1821;50.936;6.854;2023-02-24T05:13:31;17.45;;;4.88;;
3613;SDS011;1821;50.936;6.854;2023-02-24T05:14:14;15.55;;;5.60;;
3613;SDS011;1821;50.936;6.854;2023-02-24T05:14:56;19.02;;;5.70;;
3613;SDS011;1821;50.936;6.854;2023-02-24T05:15:42;17.45;;;5.30;;
3613;SDS011;1821;50.936;6.854;2023-02-24T05:16:24;16.63;;;5.28;;
3613;SDS011;1821;50.936;6.854;2023-02-24T05:17:09;15.57;;;5.40;;
3613;SDS011;1821;50.936;6.854;2023-02-24T05:17:54;20.92;;;5.75;;
3613;SDS011;1821;50.936;6.854;2023-02-24T05:18:36;19.10;;;4.78;;